AAL2367 MDSD-KMIA
Flight info
| Callsign | AAL2367 |
|---|---|
| Flight time | N/A |
| Altitude | 34000 |
| Route | MALVN2J MALVN Y261 MADIZ VIICE2 |
| Aircraft | B738/M-SDE2E3FGHIRWXY/LB1 |
Departure
| Time | 2026-05-04 20:18 |
|---|---|
| Airport | Las Américas International Airport (MDSD) |
Arrival
| Time | N/A |
|---|---|
| Airport | Miami International Airport (KMIA) |
| Time | Latitude | Longitude | Altitude | Speed | Heading |
|---|---|---|---|---|---|
| 2026-05-04 19:49 | 18.43157 | -69.67564 | 55 ft | 0 kts | 241° |
| 2026-05-04 20:06 | 18.43162 | -69.67555 | 73 ft | 4 kts | 237° |
| 2026-05-04 20:06 | 18.43174 | -69.67530 | 49 ft | 4 kts | 251° |
| 2026-05-04 20:07 | 18.43181 | -69.67503 | 56 ft | 4 kts | 258° |
| 2026-05-04 20:07 | 18.43183 | -69.67493 | 57 ft | 0 kts | 258° |
| 2026-05-04 20:10 | 18.43183 | -69.67495 | 62 ft | 1 kts | 267° |
| 2026-05-04 20:10 | 18.43193 | -69.67505 | 57 ft | 3 kts | 334° |
| 2026-05-04 20:10 | 18.43231 | -69.67506 | 62 ft | 8 kts | 355° |
| 2026-05-04 20:11 | 18.43293 | -69.67527 | 59 ft | 9 kts | 341° |
| 2026-05-04 20:11 | 18.43362 | -69.67542 | 53 ft | 11 kts | 1° |
| 2026-05-04 20:11 | 18.43442 | -69.67532 | 60 ft | 14 kts | 353° |
| 2026-05-04 20:11 | 18.43446 | -69.67533 | 60 ft | 14 kts | 351° |
| 2026-05-04 20:12 | 18.43530 | -69.67565 | 60 ft | 15 kts | 336° |
| 2026-05-04 20:12 | 18.43645 | -69.67612 | 53 ft | 20 kts | 339° |
| 2026-05-04 20:12 | 18.43731 | -69.67648 | 58 ft | 11 kts | 339° |
| 2026-05-04 20:12 | 18.43807 | -69.67680 | 58 ft | 12 kts | 339° |
| 2026-05-04 20:13 | 18.43884 | -69.67711 | 54 ft | 12 kts | 338° |
| 2026-05-04 20:13 | 18.43959 | -69.67741 | 57 ft | 12 kts | 339° |
| 2026-05-04 20:13 | 18.44039 | -69.67773 | 54 ft | 13 kts | 339° |
| 2026-05-04 20:13 | 18.44120 | -69.67777 | 53 ft | 12 kts | 30° |
| 2026-05-04 20:14 | 18.44157 | -69.67703 | 53 ft | 12 kts | 65° |
| 2026-05-04 20:14 | 18.44189 | -69.67623 | 54 ft | 12 kts | 66° |
| 2026-05-04 20:14 | 18.44240 | -69.67556 | 53 ft | 12 kts | 31° |
| 2026-05-04 20:14 | 18.44293 | -69.67529 | 56 ft | 0 kts | 26° |
| 2026-05-04 20:15 | 18.44294 | -69.67529 | 56 ft | 1 kts | 26° |
| 2026-05-04 20:15 | 18.44309 | -69.67521 | 56 ft | 5 kts | 27° |
| 2026-05-04 20:15 | 18.44348 | -69.67491 | 56 ft | 9 kts | 50° |
| 2026-05-04 20:16 | 18.44354 | -69.67413 | 54 ft | 12 kts | 121° |
| 2026-05-04 20:16 | 18.44323 | -69.67393 | 56 ft | 0 kts | 160° |
| 2026-05-04 20:17 | 18.44211 | -69.67352 | 57 ft | 46 kts | 161° |
| 2026-05-04 20:17 | 18.43695 | -69.67161 | 59 ft | 109 kts | 161° |
| 2026-05-04 20:17 | 18.42813 | -69.66837 | 66 ft | 158 kts | 162° |
| 2026-05-04 20:17 | 18.41697 | -69.66431 | 391 ft | 175 kts | 162° |
| 2026-05-04 20:18 | 18.40628 | -69.66057 | 860 ft | 187 kts | 165° |
| 2026-05-04 20:18 | 18.39490 | -69.65715 | 1568 ft | 184 kts | 164° |
| 2026-05-04 20:18 | 18.38206 | -69.65477 | 2212 ft | 188 kts | 181° |
| 2026-05-04 20:18 | 18.36927 | -69.66011 | 2434 ft | 212 kts | 224° |
| 2026-05-04 20:19 | 18.36023 | -69.67275 | 2922 ft | 220 kts | 232° |
| 2026-05-04 20:19 | 18.35383 | -69.68714 | 3464 ft | 225 kts | 252° |
| 2026-05-04 20:19 | 18.35002 | -69.70339 | 3891 ft | 234 kts | 251° |
| 2026-05-04 20:19 | 18.34534 | -69.71982 | 4439 ft | 234 kts | 249° |
| 2026-05-04 20:20 | 18.34047 | -69.73625 | 4964 ft | 237 kts | 249° |
| 2026-05-04 20:20 | 18.33546 | -69.75288 | 5411 ft | 244 kts | 249° |
| 2026-05-04 20:20 | 18.33032 | -69.77064 | 5537 ft | 266 kts | 255° |
| 2026-05-04 20:20 | 18.33130 | -69.79060 | 5793 ft | 286 kts | 291° |
| 2026-05-04 20:21 | 18.34039 | -69.80937 | 6492 ft | 288 kts | 298° |
| 2026-05-04 20:21 | 18.34960 | -69.82808 | 7181 ft | 289 kts | 296° |
| 2026-05-04 20:21 | 18.36633 | -69.86329 | 8415 ft | 293 kts | 295° |
| 2026-05-04 20:22 | 18.37534 | -69.88256 | 9059 ft | 296 kts | 294° |
| 2026-05-04 20:22 | 18.38447 | -69.90221 | 9635 ft | 301 kts | 294° |
| 2026-05-04 20:22 | 18.39363 | -69.92189 | 10395 ft | 297 kts | 294° |
| 2026-05-04 20:22 | 18.40273 | -69.94161 | 10981 ft | 301 kts | 294° |
| 2026-05-04 20:23 | 18.41188 | -69.96146 | 11618 ft | 303 kts | 294° |
| 2026-05-04 20:23 | 18.42111 | -69.98152 | 12247 ft | 305 kts | 294° |
| 2026-05-04 20:23 | 18.43035 | -70.00161 | 12942 ft | 306 kts | 294° |
| 2026-05-04 20:23 | 18.43963 | -70.02175 | 13658 ft | 306 kts | 294° |
| 2026-05-04 20:24 | 18.44892 | -70.04195 | 14319 ft | 306 kts | 294° |
| 2026-05-04 20:24 | 18.45813 | -70.06198 | 15097 ft | 301 kts | 294° |
| 2026-05-04 20:24 | 18.46722 | -70.08176 | 15792 ft | 302 kts | 294° |
| 2026-05-04 20:24 | 18.47641 | -70.10177 | 16382 ft | 305 kts | 295° |
| 2026-05-04 20:25 | 18.48599 | -70.12184 | 16965 ft | 309 kts | 301° |
| 2026-05-04 20:25 | 18.50103 | -70.13810 | 17516 ft | 316 kts | 326° |
| 2026-05-04 20:25 | 18.52035 | -70.14914 | 18223 ft | 316 kts | 331° |
| 2026-05-04 20:25 | 18.54019 | -70.15929 | 18765 ft | 319 kts | 332° |
| 2026-05-04 20:26 | 18.56044 | -70.16943 | 19198 ft | 325 kts | 332° |
| 2026-05-04 20:26 | 18.58098 | -70.17969 | 19673 ft | 329 kts | 332° |
| 2026-05-04 20:26 | 18.60174 | -70.19011 | 20194 ft | 332 kts | 332° |
| 2026-05-04 20:26 | 18.62264 | -70.20065 | 20684 ft | 335 kts | 332° |
| 2026-05-04 20:27 | 18.64377 | -70.21137 | 21200 ft | 338 kts | 332° |
| 2026-05-04 20:27 | 18.66504 | -70.22219 | 21697 ft | 341 kts | 332° |
| 2026-05-04 20:27 | 18.68649 | -70.23309 | 22179 ft | 344 kts | 332° |
| 2026-05-04 20:27 | 18.70812 | -70.24410 | 22644 ft | 347 kts | 331° |
| 2026-05-04 20:28 | 18.72994 | -70.25529 | 23125 ft | 350 kts | 332° |
| 2026-05-04 20:28 | 18.75200 | -70.26662 | 23546 ft | 355 kts | 332° |
| 2026-05-04 20:28 | 18.77428 | -70.27805 | 23931 ft | 357 kts | 332° |
| 2026-05-04 20:28 | 18.79665 | -70.28951 | 24367 ft | 358 kts | 331° |
| 2026-05-04 20:29 | 18.81909 | -70.30102 | 24781 ft | 360 kts | 332° |
| 2026-05-04 20:29 | 18.84174 | -70.31263 | 25151 ft | 363 kts | 331° |
| 2026-05-04 20:29 | 18.86450 | -70.32429 | 25544 ft | 364 kts | 331° |
| 2026-05-04 20:29 | 18.88732 | -70.33601 | 25959 ft | 366 kts | 331° |
| 2026-05-04 20:30 | 18.91028 | -70.34779 | 26389 ft | 367 kts | 332° |
| 2026-05-04 20:30 | 18.93284 | -70.35937 | 26898 ft | 364 kts | 332° |
| 2026-05-04 20:30 | 18.95584 | -70.37117 | 27456 ft | 361 kts | 331° |
| 2026-05-04 20:30 | 18.97833 | -70.38271 | 27947 ft | 359 kts | 331° |
| 2026-05-04 20:31 | 19.00054 | -70.39412 | 28356 ft | 359 kts | 331° |
| 2026-05-04 20:31 | 19.02299 | -70.40567 | 28815 ft | 359 kts | 331° |
| 2026-05-04 20:31 | 19.04538 | -70.41718 | 29293 ft | 357 kts | 331° |
| 2026-05-04 20:31 | 19.06766 | -70.42863 | 29763 ft | 355 kts | 330° |
| 2026-05-04 20:32 | 19.08981 | -70.44004 | 30210 ft | 353 kts | 330° |
| 2026-05-04 20:32 | 19.11184 | -70.45138 | 30565 ft | 352 kts | 330° |
| 2026-05-04 20:32 | 19.13395 | -70.46275 | 30842 ft | 353 kts | 330° |
| 2026-05-04 20:32 | 19.15600 | -70.47411 | 31182 ft | 352 kts | 330° |
| 2026-05-04 20:33 | 19.17795 | -70.48541 | 31532 ft | 350 kts | 330° |
| 2026-05-04 20:33 | 19.19983 | -70.49669 | 31842 ft | 350 kts | 330° |
| 2026-05-04 20:33 | 19.22176 | -70.50800 | 32096 ft | 350 kts | 330° |
| 2026-05-04 20:33 | 19.24362 | -70.51927 | 32405 ft | 349 kts | 330° |
| 2026-05-04 20:34 | 19.26543 | -70.53052 | 32702 ft | 348 kts | 330° |
| 2026-05-04 20:34 | 19.28717 | -70.54173 | 32972 ft | 348 kts | 329° |
| 2026-05-04 20:34 | 19.30892 | -70.55296 | 33223 ft | 348 kts | 329° |
| 2026-05-04 20:34 | 19.33070 | -70.56421 | 33438 ft | 349 kts | 329° |
| 2026-05-04 20:35 | 19.35256 | -70.57551 | 33633 ft | 351 kts | 329° |
| 2026-05-04 20:35 | 19.37458 | -70.58688 | 33791 ft | 353 kts | 329° |
| 2026-05-04 20:35 | 19.39676 | -70.59834 | 33945 ft | 356 kts | 329° |
| 2026-05-04 20:35 | 19.41860 | -70.61059 | 34068 ft | 355 kts | 323° |
| 2026-05-04 20:36 | 19.43890 | -70.62538 | 34189 ft | 354 kts | 319° |
| 2026-05-04 20:36 | 19.45856 | -70.64106 | 34356 ft | 353 kts | 318° |
| 2026-05-04 20:36 | 19.47806 | -70.65689 | 34531 ft | 353 kts | 318° |
| 2026-05-04 20:36 | 19.49758 | -70.67266 | 34708 ft | 353 kts | 318° |
| 2026-05-04 20:37 | 19.51718 | -70.68832 | 34897 ft | 352 kts | 319° |
| 2026-05-04 20:37 | 19.53681 | -70.70387 | 35065 ft | 352 kts | 319° |
| 2026-05-04 20:37 | 19.55649 | -70.71933 | 35230 ft | 352 kts | 319° |
| 2026-05-04 20:37 | 19.57622 | -70.73477 | 35362 ft | 353 kts | 319° |
| 2026-05-04 20:38 | 19.61586 | -70.76574 | 35543 ft | 356 kts | 319° |
| 2026-05-04 20:38 | 19.63587 | -70.78131 | 35652 ft | 357 kts | 319° |
| 2026-05-04 20:38 | 19.65605 | -70.79702 | 35538 ft | 366 kts | 319° |
| 2026-05-04 20:39 | 19.67693 | -70.81332 | 35281 ft | 379 kts | 319° |
| 2026-05-04 20:39 | 19.69843 | -70.83011 | 35070 ft | 390 kts | 319° |
| 2026-05-04 20:39 | 19.72061 | -70.84742 | 34865 ft | 401 kts | 320° |
| 2026-05-04 20:39 | 19.74340 | -70.86519 | 34652 ft | 412 kts | 320° |
| 2026-05-04 20:40 | 19.76682 | -70.88346 | 34454 ft | 423 kts | 320° |
| 2026-05-04 20:40 | 19.79084 | -70.90219 | 34233 ft | 434 kts | 320° |
| 2026-05-04 20:40 | 19.81509 | -70.92110 | 34054 ft | 443 kts | 320° |
| 2026-05-04 20:40 | 19.84005 | -70.94055 | 34006 ft | 448 kts | 320° |
| 2026-05-04 20:41 | 19.89073 | -70.98008 | 33966 ft | 455 kts | 320° |
| 2026-05-04 20:41 | 19.94206 | -71.02017 | 33960 ft | 461 kts | 320° |
| 2026-05-04 20:42 | 19.99392 | -71.06072 | 33961 ft | 465 kts | 320° |
| 2026-05-04 20:42 | 20.04609 | -71.10156 | 33962 ft | 467 kts | 320° |
| 2026-05-04 20:43 | 20.09848 | -71.14261 | 33981 ft | 468 kts | 320° |
| 2026-05-04 20:43 | 20.15092 | -71.18374 | 33975 ft | 468 kts | 320° |
| 2026-05-04 20:44 | 20.20337 | -71.22490 | 33965 ft | 468 kts | 320° |
| 2026-05-04 20:44 | 20.25571 | -71.26602 | 33968 ft | 467 kts | 320° |
| 2026-05-04 20:45 | 20.30794 | -71.30710 | 33965 ft | 466 kts | 320° |
| 2026-05-04 20:45 | 20.36009 | -71.34815 | 33974 ft | 466 kts | 320° |
| 2026-05-04 20:46 | 20.41197 | -71.38945 | 33974 ft | 464 kts | 315° |
| 2026-05-04 20:46 | 20.43300 | -71.41483 | 33973 ft | 454 kts | 298° |
| 2026-05-04 20:46 | 20.44926 | -71.44355 | 33978 ft | 454 kts | 299° |
| 2026-05-04 20:47 | 20.48386 | -71.49992 | 33978 ft | 455 kts | 301° |
| 2026-05-04 20:47 | 20.51933 | -71.55581 | 33991 ft | 455 kts | 301° |
| 2026-05-04 20:48 | 20.55477 | -71.61176 | 33980 ft | 455 kts | 301° |
| 2026-05-04 20:48 | 20.59005 | -71.66777 | 33988 ft | 455 kts | 301° |
| 2026-05-04 20:49 | 20.62526 | -71.72385 | 33980 ft | 454 kts | 301° |
| 2026-05-04 20:49 | 20.66040 | -71.77989 | 33980 ft | 454 kts | 301° |
| 2026-05-04 20:50 | 20.69527 | -71.83556 | 33976 ft | 454 kts | 301° |
| 2026-05-04 20:50 | 20.73038 | -71.89164 | 33982 ft | 454 kts | 301° |
| 2026-05-04 20:51 | 20.76546 | -71.94774 | 33984 ft | 454 kts | 300° |
| 2026-05-04 20:51 | 20.80051 | -72.00384 | 33989 ft | 454 kts | 300° |
| 2026-05-04 20:52 | 20.83554 | -72.05996 | 33992 ft | 454 kts | 300° |
| 2026-05-04 20:52 | 20.87055 | -72.11613 | 33984 ft | 454 kts | 300° |
| 2026-05-04 20:53 | 20.90551 | -72.17226 | 33989 ft | 454 kts | 300° |
| 2026-05-04 20:53 | 20.94047 | -72.22843 | 33981 ft | 453 kts | 300° |
| 2026-05-04 20:54 | 20.97540 | -72.28462 | 33988 ft | 453 kts | 300° |
| 2026-05-04 20:54 | 21.01027 | -72.34078 | 33980 ft | 453 kts | 300° |
| 2026-05-04 20:55 | 21.04510 | -72.39693 | 33978 ft | 453 kts | 300° |
| 2026-05-04 20:55 | 21.07990 | -72.45308 | 33978 ft | 453 kts | 300° |
| 2026-05-04 20:56 | 21.11471 | -72.50930 | 33981 ft | 453 kts | 300° |
| 2026-05-04 20:56 | 21.14360 | -72.55601 | 33988 ft | 453 kts | 300° |
| 2026-05-04 20:57 | 21.17836 | -72.61226 | 33997 ft | 452 kts | 300° |
| 2026-05-04 20:57 | 21.21306 | -72.66848 | 33979 ft | 452 kts | 300° |
| 2026-05-04 20:58 | 21.24775 | -72.72475 | 33988 ft | 452 kts | 299° |
| 2026-05-04 20:58 | 21.28237 | -72.78100 | 33986 ft | 452 kts | 299° |
| 2026-05-04 20:59 | 21.31698 | -72.83727 | 33986 ft | 452 kts | 299° |
| 2026-05-04 20:59 | 21.35158 | -72.89359 | 33986 ft | 452 kts | 299° |
| 2026-05-04 21:00 | 21.38614 | -72.94990 | 33989 ft | 452 kts | 299° |
| 2026-05-04 21:00 | 21.42065 | -73.00620 | 33988 ft | 452 kts | 299° |
| 2026-05-04 21:01 | 21.45495 | -73.06219 | 33991 ft | 452 kts | 299° |
| 2026-05-04 21:01 | 21.48942 | -73.11853 | 33988 ft | 452 kts | 299° |
| 2026-05-04 21:02 | 21.52390 | -73.17495 | 33989 ft | 452 kts | 299° |
| 2026-05-04 21:02 | 21.55833 | -73.23133 | 33989 ft | 452 kts | 299° |
| 2026-05-04 21:03 | 21.59274 | -73.28775 | 33989 ft | 452 kts | 299° |
| 2026-05-04 21:03 | 21.62714 | -73.34419 | 33996 ft | 451 kts | 298° |
| 2026-05-04 21:04 | 21.66140 | -73.40046 | 33989 ft | 449 kts | 298° |
| 2026-05-04 21:04 | 21.69557 | -73.45664 | 33992 ft | 448 kts | 298° |
| 2026-05-04 21:05 | 21.72968 | -73.51280 | 33991 ft | 448 kts | 298° |
| 2026-05-04 21:05 | 21.76371 | -73.56889 | 33992 ft | 448 kts | 298° |
| 2026-05-04 21:06 | 21.79771 | -73.62497 | 33996 ft | 447 kts | 298° |
| 2026-05-04 21:06 | 21.83166 | -73.68102 | 34000 ft | 446 kts | 298° |
| 2026-05-04 21:07 | 21.86554 | -73.73703 | 33988 ft | 446 kts | 298° |
| 2026-05-04 21:07 | 21.89932 | -73.79292 | 33989 ft | 445 kts | 298° |
| 2026-05-04 21:08 | 21.93304 | -73.84877 | 33992 ft | 445 kts | 298° |
| 2026-05-04 21:08 | 21.96648 | -73.90422 | 33992 ft | 444 kts | 298° |
| 2026-05-04 21:09 | 22.00011 | -73.96004 | 34000 ft | 444 kts | 298° |
| 2026-05-04 21:09 | 22.03370 | -74.01585 | 34004 ft | 443 kts | 298° |
| 2026-05-04 21:10 | 22.06716 | -74.07148 | 33987 ft | 442 kts | 298° |
| 2026-05-04 21:10 | 22.10055 | -74.12707 | 33991 ft | 441 kts | 298° |
| 2026-05-04 21:11 | 22.13384 | -74.18257 | 33992 ft | 440 kts | 298° |
| 2026-05-04 21:11 | 22.16710 | -74.23806 | 33992 ft | 440 kts | 297° |
| 2026-05-04 21:12 | 22.20029 | -74.29350 | 33994 ft | 440 kts | 297° |
| 2026-05-04 21:12 | 22.23349 | -74.34900 | 33994 ft | 440 kts | 297° |
| 2026-05-04 21:13 | 22.26665 | -74.40450 | 33992 ft | 440 kts | 297° |
| 2026-05-04 21:13 | 22.29981 | -74.46006 | 33992 ft | 440 kts | 297° |
| 2026-05-04 21:14 | 22.33294 | -74.51562 | 33993 ft | 440 kts | 297° |
| 2026-05-04 21:14 | 22.36607 | -74.57124 | 34011 ft | 440 kts | 297° |
| 2026-05-04 21:15 | 22.39898 | -74.62655 | 33997 ft | 440 kts | 297° |
| 2026-05-04 21:15 | 22.43206 | -74.68220 | 33994 ft | 440 kts | 297° |
| 2026-05-04 21:16 | 22.46516 | -74.73794 | 33995 ft | 440 kts | 297° |
| 2026-05-04 21:16 | 22.49819 | -74.79363 | 33994 ft | 440 kts | 297° |
| 2026-05-04 21:17 | 22.53122 | -74.84937 | 33989 ft | 440 kts | 297° |
| 2026-05-04 21:17 | 22.56421 | -74.90512 | 33997 ft | 440 kts | 297° |
| 2026-05-04 21:18 | 22.58999 | -74.94870 | 33993 ft | 440 kts | 297° |
| 2026-05-04 21:18 | 22.62293 | -75.00447 | 33994 ft | 440 kts | 297° |
| 2026-05-04 21:19 | 22.65588 | -75.06030 | 33998 ft | 440 kts | 297° |
| 2026-05-04 21:19 | 22.68880 | -75.11614 | 33991 ft | 440 kts | 297° |
| 2026-05-04 21:20 | 22.72168 | -75.17197 | 33992 ft | 439 kts | 297° |
| 2026-05-04 21:20 | 22.75449 | -75.22775 | 34002 ft | 439 kts | 297° |
| 2026-05-04 21:21 | 22.78726 | -75.28351 | 33992 ft | 438 kts | 297° |
| 2026-05-04 21:21 | 22.81997 | -75.33923 | 33992 ft | 438 kts | 297° |
| 2026-05-04 21:22 | 22.85260 | -75.39488 | 33994 ft | 437 kts | 297° |
| 2026-05-04 21:22 | 22.88499 | -75.45018 | 34003 ft | 437 kts | 297° |
| 2026-05-04 21:23 | 22.91756 | -75.50584 | 33996 ft | 437 kts | 297° |
| 2026-05-04 21:23 | 22.95008 | -75.56148 | 33994 ft | 437 kts | 297° |
| 2026-05-04 21:24 | 22.98258 | -75.61714 | 33993 ft | 436 kts | 297° |
| 2026-05-04 21:24 | 23.01501 | -75.67276 | 33994 ft | 436 kts | 297° |
| 2026-05-04 21:25 | 23.04746 | -75.72845 | 33992 ft | 436 kts | 297° |
| 2026-05-04 21:25 | 23.07988 | -75.78416 | 33994 ft | 436 kts | 297° |
| 2026-05-04 21:26 | 23.11228 | -75.83989 | 34016 ft | 436 kts | 297° |
| 2026-05-04 21:26 | 23.14456 | -75.89547 | 33997 ft | 434 kts | 297° |
| 2026-05-04 21:27 | 23.17670 | -75.95088 | 33986 ft | 433 kts | 297° |
| 2026-05-04 21:27 | 23.20873 | -76.00615 | 33991 ft | 432 kts | 297° |
| 2026-05-04 21:28 | 23.24066 | -76.06133 | 33991 ft | 431 kts | 297° |
| 2026-05-04 21:28 | 23.27256 | -76.11651 | 33992 ft | 431 kts | 297° |
| 2026-05-04 21:29 | 23.30443 | -76.17169 | 34009 ft | 431 kts | 297° |
| 2026-05-04 21:29 | 23.33627 | -76.22689 | 33997 ft | 431 kts | 297° |
| 2026-05-04 21:30 | 23.36808 | -76.28208 | 33991 ft | 430 kts | 297° |
| 2026-05-04 21:30 | 23.39966 | -76.33692 | 33992 ft | 430 kts | 297° |
| 2026-05-04 21:31 | 23.44729 | -76.41977 | 33992 ft | 430 kts | 297° |
| 2026-05-04 21:32 | 23.47901 | -76.47503 | 34017 ft | 430 kts | 297° |
| 2026-05-04 21:32 | 23.51074 | -76.53037 | 34001 ft | 431 kts | 297° |
| 2026-05-04 21:33 | 23.54248 | -76.58577 | 33988 ft | 431 kts | 297° |
| 2026-05-04 21:33 | 23.57420 | -76.64119 | 33989 ft | 431 kts | 297° |
| 2026-05-04 21:34 | 23.60586 | -76.69658 | 33992 ft | 431 kts | 297° |
| 2026-05-04 21:34 | 23.63753 | -76.75204 | 33992 ft | 430 kts | 297° |
| 2026-05-04 21:35 | 23.66914 | -76.80748 | 33995 ft | 430 kts | 297° |
| 2026-05-04 21:35 | 23.70074 | -76.86294 | 33991 ft | 430 kts | 297° |
| 2026-05-04 21:36 | 23.73234 | -76.91848 | 33989 ft | 431 kts | 296° |
| 2026-05-04 21:36 | 23.76391 | -76.97402 | 33984 ft | 431 kts | 296° |
| 2026-05-04 21:37 | 23.79547 | -77.02960 | 33987 ft | 431 kts | 296° |
| 2026-05-04 21:37 | 23.82700 | -77.08519 | 33987 ft | 431 kts | 296° |
| 2026-05-04 21:38 | 23.85857 | -77.14092 | 33993 ft | 432 kts | 296° |
| 2026-05-04 21:38 | 23.89019 | -77.19680 | 33994 ft | 433 kts | 296° |
| 2026-05-04 21:39 | 23.92165 | -77.25246 | 33980 ft | 434 kts | 296° |
| 2026-05-04 21:39 | 23.95356 | -77.30896 | 33992 ft | 434 kts | 296° |
| 2026-05-04 21:40 | 23.98501 | -77.36473 | 33991 ft | 434 kts | 296° |
| 2026-05-04 21:40 | 24.01670 | -77.42098 | 33979 ft | 434 kts | 296° |
| 2026-05-04 21:40 | 24.03242 | -77.44879 | 33957 ft | 422 kts | 296° |
| 2026-05-04 21:41 | 24.04756 | -77.47554 | 33969 ft | 404 kts | 296° |
| 2026-05-04 21:41 | 24.06203 | -77.50119 | 33960 ft | 389 kts | 296° |
| 2026-05-04 21:41 | 24.07614 | -77.52632 | 33995 ft | 389 kts | 295° |
| 2026-05-04 21:42 | 24.10479 | -77.57766 | 33999 ft | 401 kts | 296° |
| 2026-05-04 21:42 | 24.13431 | -77.63044 | 33991 ft | 412 kts | 296° |
| 2026-05-04 21:43 | 24.16459 | -77.68448 | 33990 ft | 421 kts | 296° |
| 2026-05-04 21:43 | 24.19526 | -77.73926 | 33989 ft | 429 kts | 296° |
| 2026-05-04 21:44 | 24.22670 | -77.79546 | 33991 ft | 435 kts | 296° |
| 2026-05-04 21:44 | 24.25840 | -77.85218 | 33977 ft | 437 kts | 296° |
| 2026-05-04 21:45 | 24.29086 | -77.90875 | 33980 ft | 440 kts | 298° |
| 2026-05-04 21:45 | 24.32531 | -77.96416 | 33979 ft | 440 kts | 298° |
| 2026-05-04 21:46 | 24.35991 | -78.01956 | 33977 ft | 440 kts | 298° |
| 2026-05-04 21:46 | 24.38862 | -78.06603 | 33978 ft | 439 kts | 298° |
| 2026-05-04 21:47 | 24.42266 | -78.12151 | 33977 ft | 438 kts | 298° |
| 2026-05-04 21:47 | 24.45660 | -78.17700 | 33978 ft | 437 kts | 298° |
| 2026-05-04 21:48 | 24.49045 | -78.23237 | 33981 ft | 437 kts | 298° |
| 2026-05-04 21:48 | 24.52428 | -78.28779 | 33981 ft | 436 kts | 298° |
| 2026-05-04 21:49 | 24.55804 | -78.34313 | 33999 ft | 436 kts | 298° |
| 2026-05-04 21:49 | 24.59161 | -78.39819 | 33969 ft | 425 kts | 298° |
| 2026-05-04 21:50 | 24.62403 | -78.45138 | 33980 ft | 416 kts | 297° |
| 2026-05-04 21:50 | 24.65583 | -78.50377 | 33985 ft | 416 kts | 297° |
| 2026-05-04 21:51 | 24.68792 | -78.55666 | 33977 ft | 416 kts | 297° |
| 2026-05-04 21:51 | 24.72005 | -78.60964 | 33975 ft | 416 kts | 297° |
| 2026-05-04 21:52 | 24.75215 | -78.66262 | 33980 ft | 416 kts | 297° |
| 2026-05-04 21:52 | 24.78427 | -78.71568 | 33981 ft | 417 kts | 298° |
| 2026-05-04 21:53 | 24.81645 | -78.76886 | 33976 ft | 416 kts | 297° |
| 2026-05-04 21:53 | 24.83226 | -78.79492 | 33953 ft | 401 kts | 297° |
| 2026-05-04 21:53 | 24.84740 | -78.81980 | 33947 ft | 381 kts | 297° |
| 2026-05-04 21:53 | 24.86174 | -78.84341 | 33957 ft | 362 kts | 297° |
| 2026-05-04 21:54 | 24.87538 | -78.86593 | 33950 ft | 345 kts | 296° |
| 2026-05-04 21:54 | 24.88835 | -78.88740 | 33965 ft | 330 kts | 296° |
| 2026-05-04 21:54 | 24.90078 | -78.90836 | 33962 ft | 324 kts | 295° |
| 2026-05-04 21:55 | 24.92622 | -78.95068 | 33603 ft | 335 kts | 297° |
| 2026-05-04 21:55 | 24.93911 | -78.97204 | 33013 ft | 335 kts | 297° |
| 2026-05-04 21:55 | 24.95199 | -78.99343 | 32431 ft | 335 kts | 297° |
| 2026-05-04 21:55 | 24.96486 | -79.01482 | 31931 ft | 333 kts | 297° |
| 2026-05-04 21:56 | 24.97763 | -79.03604 | 31511 ft | 333 kts | 297° |
| 2026-05-04 21:56 | 24.99029 | -79.05706 | 31180 ft | 325 kts | 298° |
| 2026-05-04 21:56 | 25.00271 | -79.07770 | 30772 ft | 321 kts | 298° |
| 2026-05-04 21:56 | 25.01500 | -79.09816 | 30323 ft | 319 kts | 298° |
| 2026-05-04 21:57 | 25.02720 | -79.11848 | 29856 ft | 317 kts | 298° |
| 2026-05-04 21:57 | 25.03931 | -79.13863 | 29359 ft | 314 kts | 298° |
| 2026-05-04 21:57 | 25.05130 | -79.15868 | 28857 ft | 312 kts | 297° |
| 2026-05-04 21:57 | 25.06321 | -79.17863 | 28372 ft | 310 kts | 298° |
| 2026-05-04 21:58 | 25.07505 | -79.19838 | 27907 ft | 308 kts | 298° |
| 2026-05-04 21:58 | 25.08684 | -79.21803 | 27449 ft | 306 kts | 298° |
| 2026-05-04 21:58 | 25.09857 | -79.23756 | 26995 ft | 304 kts | 298° |
| 2026-05-04 21:58 | 25.11010 | -79.25669 | 26562 ft | 303 kts | 298° |
| 2026-05-04 21:59 | 25.12183 | -79.27627 | 26123 ft | 301 kts | 298° |
| 2026-05-04 21:59 | 25.13319 | -79.29528 | 25717 ft | 300 kts | 298° |
| 2026-05-04 21:59 | 25.14478 | -79.31467 | 25306 ft | 298 kts | 298° |
| 2026-05-04 21:59 | 25.15602 | -79.33349 | 24915 ft | 297 kts | 298° |
| 2026-05-04 22:00 | 25.16749 | -79.35269 | 24531 ft | 295 kts | 298° |
| 2026-05-04 22:00 | 25.17872 | -79.37149 | 24144 ft | 294 kts | 298° |
| 2026-05-04 22:00 | 25.18984 | -79.39012 | 23775 ft | 293 kts | 298° |
| 2026-05-04 22:00 | 25.20098 | -79.40877 | 23380 ft | 292 kts | 298° |
| 2026-05-04 22:01 | 25.21210 | -79.42740 | 22978 ft | 290 kts | 298° |
| 2026-05-04 22:01 | 25.22315 | -79.44588 | 22617 ft | 287 kts | 298° |
| 2026-05-04 22:01 | 25.23412 | -79.46419 | 22235 ft | 285 kts | 298° |
| 2026-05-04 22:01 | 25.24503 | -79.48236 | 21844 ft | 284 kts | 298° |
| 2026-05-04 22:02 | 25.25593 | -79.50048 | 21465 ft | 282 kts | 298° |
| 2026-05-04 22:02 | 25.26670 | -79.51836 | 21120 ft | 281 kts | 298° |
| 2026-05-04 22:02 | 25.27760 | -79.53637 | 20767 ft | 280 kts | 298° |
| 2026-05-04 22:02 | 25.28843 | -79.55415 | 20419 ft | 278 kts | 298° |
| 2026-05-04 22:03 | 25.29923 | -79.57182 | 20087 ft | 277 kts | 298° |
| 2026-05-04 22:03 | 25.31002 | -79.58943 | 19750 ft | 276 kts | 298° |
| 2026-05-04 22:03 | 25.32073 | -79.60690 | 19436 ft | 274 kts | 298° |
| 2026-05-04 22:03 | 25.33143 | -79.62432 | 19117 ft | 273 kts | 298° |
| 2026-05-04 22:04 | 25.34209 | -79.64166 | 18806 ft | 272 kts | 298° |
| 2026-05-04 22:04 | 25.35271 | -79.65892 | 18501 ft | 271 kts | 298° |
| 2026-05-04 22:04 | 25.36331 | -79.67610 | 18183 ft | 269 kts | 298° |
| 2026-05-04 22:04 | 25.37390 | -79.69330 | 17546 ft | 276 kts | 298° |
| 2026-05-04 22:05 | 25.38512 | -79.71182 | 16438 ft | 304 kts | 298° |
| 2026-05-04 22:05 | 25.39715 | -79.73214 | 15491 ft | 325 kts | 298° |
| 2026-05-04 22:05 | 25.40950 | -79.75327 | 15012 ft | 328 kts | 298° |
| 2026-05-04 22:05 | 25.42174 | -79.77437 | 14714 ft | 324 kts | 298° |
| 2026-05-04 22:06 | 25.43386 | -79.79530 | 14412 ft | 322 kts | 298° |
| 2026-05-04 22:06 | 25.44594 | -79.81623 | 13986 ft | 324 kts | 298° |
| 2026-05-04 22:06 | 25.45802 | -79.83724 | 13579 ft | 324 kts | 298° |
| 2026-05-04 22:06 | 25.47007 | -79.85828 | 13160 ft | 324 kts | 298° |
| 2026-05-04 22:07 | 25.48197 | -79.87912 | 13017 ft | 314 kts | 298° |
| 2026-05-04 22:07 | 25.49343 | -79.89912 | 12989 ft | 301 kts | 298° |
| 2026-05-04 22:07 | 25.50528 | -79.91765 | 12918 ft | 292 kts | 306° |
| 2026-05-04 22:07 | 25.51811 | -79.93443 | 12818 ft | 279 kts | 303° |
| 2026-05-04 22:08 | 25.52978 | -79.95144 | 12317 ft | 279 kts | 302° |
| 2026-05-04 22:08 | 25.54156 | -79.96876 | 11904 ft | 282 kts | 303° |
| 2026-05-04 22:08 | 25.55341 | -79.98585 | 11652 ft | 278 kts | 303° |
| 2026-05-04 22:08 | 25.56524 | -80.00274 | 11326 ft | 277 kts | 303° |
| 2026-05-04 22:09 | 25.57693 | -80.01935 | 10990 ft | 277 kts | 304° |
| 2026-05-04 22:09 | 25.58874 | -80.03621 | 10677 ft | 276 kts | 303° |
| 2026-05-04 22:09 | 25.59985 | -80.05344 | 10369 ft | 275 kts | 301° |
| 2026-05-04 22:09 | 25.61076 | -80.07089 | 10109 ft | 275 kts | 301° |
| 2026-05-04 22:10 | 25.62167 | -80.08822 | 9921 ft | 273 kts | 301° |
| 2026-05-04 22:10 | 25.63256 | -80.10538 | 9670 ft | 272 kts | 301° |
| 2026-05-04 22:10 | 25.64351 | -80.12259 | 9424 ft | 274 kts | 302° |
| 2026-05-04 22:10 | 25.65447 | -80.13986 | 9258 ft | 273 kts | 300° |
| 2026-05-04 22:11 | 25.66347 | -80.15825 | 9071 ft | 271 kts | 292° |
| 2026-05-04 22:11 | 25.67113 | -80.17733 | 8884 ft | 271 kts | 291° |
| 2026-05-04 22:11 | 25.67888 | -80.19645 | 8674 ft | 273 kts | 292° |
| 2026-05-04 22:11 | 25.68678 | -80.21552 | 8544 ft | 271 kts | 292° |
| 2026-05-04 22:12 | 25.69463 | -80.23425 | 8436 ft | 263 kts | 292° |
| 2026-05-04 22:12 | 25.70226 | -80.25228 | 8237 ft | 255 kts | 292° |
| 2026-05-04 22:12 | 25.70972 | -80.27022 | 7756 ft | 258 kts | 289° |
| 2026-05-04 22:12 | 25.71249 | -80.28958 | 7324 ft | 255 kts | 265° |
| 2026-05-04 22:13 | 25.71093 | -80.30915 | 6928 ft | 255 kts | 266° |
| 2026-05-04 22:13 | 25.70996 | -80.32874 | 6520 ft | 256 kts | 267° |
| 2026-05-04 22:13 | 25.70907 | -80.34831 | 6233 ft | 252 kts | 267° |
| 2026-05-04 22:13 | 25.70816 | -80.36794 | 5798 ft | 256 kts | 268° |
| 2026-05-04 22:14 | 25.70728 | -80.38765 | 5394 ft | 258 kts | 267° |
| 2026-05-04 22:14 | 25.70630 | -80.40765 | 4988 ft | 260 kts | 268° |
| 2026-05-04 22:14 | 25.70533 | -80.42769 | 4674 ft | 260 kts | 268° |
| 2026-05-04 22:14 | 25.70426 | -80.44779 | 4252 ft | 262 kts | 268° |
| 2026-05-04 22:15 | 25.70312 | -80.46824 | 3836 ft | 269 kts | 268° |
| 2026-05-04 22:15 | 25.70210 | -80.48874 | 3701 ft | 262 kts | 268° |
| 2026-05-04 22:15 | 25.70080 | -80.50863 | 3591 ft | 256 kts | 269° |
| 2026-05-04 22:15 | 25.69996 | -80.52800 | 3504 ft | 247 kts | 268° |
| 2026-05-04 22:16 | 25.70049 | -80.54649 | 3422 ft | 235 kts | 287° |
| 2026-05-04 22:16 | 25.70844 | -80.56152 | 3288 ft | 224 kts | 319° |
| 2026-05-04 22:16 | 25.72190 | -80.56913 | 3073 ft | 224 kts | 351° |
| 2026-05-04 22:16 | 25.73719 | -80.56889 | 3045 ft | 219 kts | 21° |
| 2026-05-04 22:17 | 25.74930 | -80.55961 | 3017 ft | 213 kts | 52° |
| 2026-05-04 22:17 | 25.75817 | -80.54635 | 3019 ft | 215 kts | 54° |
| 2026-05-04 22:17 | 25.76730 | -80.53337 | 2988 ft | 210 kts | 52° |
| 2026-05-04 22:17 | 25.77600 | -80.52067 | 2983 ft | 205 kts | 53° |
| 2026-05-04 22:18 | 25.78451 | -80.50798 | 2995 ft | 206 kts | 53° |
| 2026-05-04 22:18 | 25.79113 | -80.49392 | 2987 ft | 209 kts | 77° |
| 2026-05-04 22:18 | 25.79011 | -80.47809 | 2990 ft | 210 kts | 106° |
| 2026-05-04 22:18 | 25.78477 | -80.46267 | 3000 ft | 217 kts | 101° |
| 2026-05-04 22:19 | 25.78328 | -80.44618 | 3002 ft | 213 kts | 88° |
| 2026-05-04 22:19 | 25.78306 | -80.42981 | 3016 ft | 212 kts | 86° |
| 2026-05-04 22:19 | 25.78322 | -80.41331 | 3033 ft | 217 kts | 87° |
| 2026-05-04 22:19 | 25.78472 | -80.39650 | 2994 ft | 217 kts | 80° |
| 2026-05-04 22:20 | 25.78480 | -80.38037 | 2986 ft | 201 kts | 95° |
| 2026-05-04 22:20 | 25.78359 | -80.36538 | 2989 ft | 190 kts | 85° |
| 2026-05-04 22:20 | 25.78435 | -80.35130 | 2978 ft | 178 kts | 83° |
| 2026-05-04 22:20 | 25.78501 | -80.33783 | 2994 ft | 174 kts | 86° |
| 2026-05-04 22:21 | 25.78222 | -80.32482 | 2986 ft | 178 kts | 122° |
| 2026-05-04 22:21 | 25.77228 | -80.31695 | 2995 ft | 182 kts | 164° |
| 2026-05-04 22:21 | 25.75954 | -80.31553 | 3027 ft | 187 kts | 172° |
| 2026-05-04 22:21 | 25.74628 | -80.31451 | 3020 ft | 193 kts | 172° |
| 2026-05-04 22:22 | 25.73288 | -80.31381 | 2994 ft | 194 kts | 180° |
| 2026-05-04 22:22 | 25.72060 | -80.31919 | 2983 ft | 190 kts | 223° |
| 2026-05-04 22:22 | 25.71425 | -80.33168 | 3031 ft | 188 kts | 262° |
| 2026-05-04 22:22 | 25.71199 | -80.34620 | 3014 ft | 193 kts | 263° |
| 2026-05-04 22:23 | 25.70972 | -80.36059 | 2975 ft | 194 kts | 263° |
| 2026-05-04 22:23 | 25.70737 | -80.37536 | 3007 ft | 194 kts | 262° |
| 2026-05-04 22:23 | 25.70509 | -80.39025 | 2995 ft | 193 kts | 262° |
| 2026-05-04 22:23 | 25.70285 | -80.40483 | 2981 ft | 189 kts | 263° |
| 2026-05-04 22:24 | 25.70070 | -80.41906 | 2975 ft | 187 kts | 263° |
| 2026-05-04 22:24 | 25.69853 | -80.43334 | 3015 ft | 193 kts | 263° |
| 2026-05-04 22:24 | 25.69636 | -80.44834 | 3022 ft | 200 kts | 263° |
| 2026-05-04 22:24 | 25.69443 | -80.46356 | 2993 ft | 197 kts | 263° |
| 2026-05-04 22:25 | 25.69348 | -80.47844 | 2949 ft | 189 kts | 284° |
| 2026-05-04 22:25 | 25.69948 | -80.49033 | 2991 ft | 176 kts | 327° |
| 2026-05-04 22:25 | 25.71067 | -80.49511 | 3030 ft | 175 kts | 354° |
| 2026-05-04 22:25 | 25.72283 | -80.49709 | 2968 ft | 174 kts | 6° |
| 2026-05-04 22:26 | 25.73422 | -80.49394 | 3013 ft | 169 kts | 16° |
| 2026-05-04 22:26 | 25.74610 | -80.49477 | 3025 ft | 176 kts | 348° |
| 2026-05-04 22:26 | 25.75813 | -80.49612 | 2986 ft | 170 kts | 16° |
| 2026-05-04 22:26 | 25.76770 | -80.48932 | 3025 ft | 163 kts | 40° |
| 2026-05-04 22:27 | 25.77735 | -80.48243 | 3003 ft | 164 kts | 31° |
| 2026-05-04 22:27 | 25.78551 | -80.47383 | 2998 ft | 161 kts | 57° |
| 2026-05-04 22:27 | 25.78821 | -80.46190 | 2981 ft | 167 kts | 98° |
| 2026-05-04 22:27 | 25.78606 | -80.44893 | 2976 ft | 174 kts | 88° |
| 2026-05-04 22:28 | 25.78575 | -80.43567 | 3002 ft | 173 kts | 88° |
| 2026-05-04 22:28 | 25.78492 | -80.42243 | 2992 ft | 171 kts | 91° |
| 2026-05-04 22:28 | 25.78401 | -80.40931 | 3002 ft | 170 kts | 89° |
| 2026-05-04 22:28 | 25.78286 | -80.39616 | 2986 ft | 174 kts | 94° |
| 2026-05-04 22:29 | 25.78271 | -80.38277 | 3003 ft | 178 kts | 88° |